sensor_id;sensor_type;location;lat;lon;timestamp;pressure;altitude;pressure_sealevel;temperature;humidity
80853;BME280;70270;43.434;28.338;2023-07-20T00:01:19;99401.59;;;25.03;76.65
80853;BME280;70270;43.434;28.338;2023-07-20T00:04:03;99436.34;;;25.23;77.28
80853;BME280;70270;43.434;28.338;2023-07-20T00:06:47;99508.63;;;25.85;77.06
80853;BME280;70270;43.434;28.338;2023-07-20T00:09:32;99505.41;;;25.69;77.21
80853;BME280;70270;43.434;28.338;2023-07-20T00:12:16;99533.44;;;25.81;76.74
80853;BME280;70270;43.434;28.338;2023-07-20T00:15:01;99410.81;;;25.35;76.78
80853;BME280;70270;43.434;28.338;2023-07-20T00:17:45;99494.09;;;25.79;76.89
80853;BME280;70270;43.434;28.338;2023-07-20T00:20:30;99411.06;;;25.25;77.08
80853;BME280;70270;43.434;28.338;2023-07-20T00:23:14;99538.81;;;25.78;76.59
80853;BME280;70270;43.434;28.338;2023-07-20T00:25:59;99506.31;;;25.78;76.99
80853;BME280;70270;43.434;28.338;2023-07-20T00:28:43;99421.41;;;25.33;76.16
80853;BME280;70270;43.434;28.338;2023-07-20T00:31:28;99485.88;;;25.74;76.97
80853;BME280;70270;43.434;28.338;2023-07-20T00:34:14;99320.78;;;24.74;76.91
80853;BME280;70270;43.434;28.338;2023-07-20T00:36:58;99490.31;;;25.75;77.00
80853;BME280;70270;43.434;28.338;2023-07-20T00:39:43;99399.78;;;25.21;77.12
80853;BME280;70270;43.434;28.338;2023-07-20T00:42:27;99494.44;;;25.64;76.25
80853;BME280;70270;43.434;28.338;2023-07-20T00:45:12;99500.13;;;25.59;76.13
80853;BME280;70270;43.434;28.338;2023-07-20T00:47:57;99485.16;;;25.69;76.18
80853;BME280;70270;43.434;28.338;2023-07-20T00:50:41;99346.94;;;24.68;77.00
80853;BME280;70270;43.434;28.338;2023-07-20T00:53:27;99442.00;;;25.54;77.52
80853;BME280;70270;43.434;28.338;2023-07-20T00:56:12;99477.00;;;25.64;78.91
80853;BME280;70270;43.434;28.338;2023-07-20T00:58:57;99425.44;;;25.49;78.15
80853;BME280;70270;43.434;28.338;2023-07-20T01:01:41;99342.19;;;24.82;77.68
80853;BME280;70270;43.434;28.338;2023-07-20T01:04:26;99317.16;;;24.87;76.91
80853;BME280;70270;43.434;28.338;2023-07-20T01:07:31;99333.16;;;24.90;76.53
80853;BME280;70270;43.434;28.338;2023-07-20T01:10:22;99513.75;;;25.91;77.03
80853;BME280;70270;43.434;28.338;2023-07-20T01:13:10;99505.31;;;25.74;77.87
80853;BME280;70270;43.434;28.338;2023-07-20T01:15:57;99372.69;;;24.82;77.44
80853;BME280;70270;43.434;28.338;2023-07-20T01:18:45;99485.50;;;25.67;76.44
80853;BME280;70270;43.434;28.338;2023-07-20T01:31:30;99496.75;;;25.48;76.88
80853;BME280;70270;43.434;28.338;2023-07-20T01:34:17;99510.22;;;25.55;76.81
80853;BME280;70270;43.434;28.338;2023-07-20T01:37:03;99420.84;;;24.86;77.53
80853;BME280;70270;43.434;28.338;2023-07-20T01:39:48;99487.84;;;25.38;77.71
80853;BME280;70270;43.434;28.338;2023-07-20T01:42:32;99482.31;;;25.38;77.38
80853;BME280;70270;43.434;28.338;2023-07-20T01:45:17;99503.84;;;25.41;77.20
80853;BME280;70270;43.434;28.338;2023-07-20T01:48:02;99351.53;;;24.50;76.77
80853;BME280;70270;43.434;28.338;2023-07-20T01:50:47;99503.13;;;25.49;76.68
80853;BME280;70270;43.434;28.338;2023-07-20T01:53:33;99511.06;;;25.42;76.89
80853;BME280;70270;43.434;28.338;2023-07-20T01:56:18;99423.78;;;25.03;76.17
80853;BME280;70270;43.434;28.338;2023-07-20T01:59:02;99426.31;;;25.13;76.05
80853;BME280;70270;43.434;28.338;2023-07-20T02:01:47;99511.53;;;25.57;75.89
80853;BME280;70270;43.434;28.338;2023-07-20T02:04:31;99543.09;;;25.48;76.46
80853;BME280;70270;43.434;28.338;2023-07-20T02:07:16;99306.84;;;24.30;74.81
80853;BME280;70270;43.434;28.338;2023-07-20T02:10:00;99504.53;;;25.60;74.12
80853;BME280;70270;43.434;28.338;2023-07-20T02:12:45;99519.66;;;25.76;73.26
80853;BME280;70270;43.434;28.338;2023-07-20T02:15:29;99582.28;;;25.82;72.39
80853;BME280;70270;43.434;28.338;2023-07-20T02:18:14;99584.94;;;25.87;72.18
80853;BME280;70270;43.434;28.338;2023-07-20T02:20:58;99588.06;;;26.17;71.29
80853;BME280;70270;43.434;28.338;2023-07-20T02:23:43;99580.84;;;26.07;70.26
80853;BME280;70270;43.434;28.338;2023-07-20T02:26:27;99529.53;;;25.82;71.25
80853;BME280;70270;43.434;28.338;2023-07-20T02:29:12;99578.38;;;26.28;71.14
80853;BME280;70270;43.434;28.338;2023-07-20T02:31:56;99524.22;;;25.94;72.04
80853;BME280;70270;43.434;28.338;2023-07-20T02:34:41;99566.00;;;26.34;72.24
80853;BME280;70270;43.434;28.338;2023-07-20T02:37:25;99410.03;;;25.21;72.04
80853;BME280;70270;43.434;28.338;2023-07-20T02:40:10;99453.44;;;25.61;71.16
80853;BME280;70270;43.434;28.338;2023-07-20T02:42:55;99534.03;;;26.00;71.71
80853;BME280;70270;43.434;28.338;2023-07-20T02:45:40;99547.16;;;26.08;71.12
80853;BME280;70270;43.434;28.338;2023-07-20T02:48:26;99544.97;;;25.97;70.57
80853;BME280;70270;43.434;28.338;2023-07-20T02:51:10;99362.84;;;25.12;69.58
80853;BME280;70270;43.434;28.338;2023-07-20T02:53:55;99424.69;;;25.57;67.62
80853;BME280;70270;43.434;28.338;2023-07-20T02:56:39;99527.22;;;26.29;66.65
80853;BME280;70270;43.434;28.338;2023-07-20T02:59:24;99546.22;;;26.35;65.03
80853;BME280;70270;43.434;28.338;2023-07-20T03:02:08;99517.34;;;26.45;63.19
80853;BME280;70270;43.434;28.338;2023-07-20T03:04:55;99501.09;;;26.30;63.67
80853;BME280;70270;43.434;28.338;2023-07-20T03:07:41;99481.78;;;26.25;63.45
80853;BME280;70270;43.434;28.338;2023-07-20T03:10:27;99492.88;;;26.25;63.71
80853;BME280;70270;43.434;28.338;2023-07-20T03:13:14;99467.72;;;26.21;63.20
80853;BME280;70270;43.434;28.338;2023-07-20T03:16:00;99486.94;;;26.40;62.63
80853;BME280;70270;43.434;28.338;2023-07-20T03:18:46;99470.94;;;26.54;62.93
80853;BME280;70270;43.434;28.338;2023-07-20T03:21:31;99461.59;;;26.41;63.61
80853;BME280;70270;43.434;28.338;2023-07-20T03:24:17;99431.28;;;26.23;63.70
80853;BME280;70270;43.434;28.338;2023-07-20T03:27:01;99287.19;;;25.20;63.00
80853;BME280;70270;43.434;28.338;2023-07-20T03:29:46;99493.09;;;26.37;63.19
80853;BME280;70270;43.434;28.338;2023-07-20T03:32:30;99475.31;;;26.38;63.25
80853;BME280;70270;43.434;28.338;2023-07-20T03:35:15;99455.91;;;26.16;63.83
80853;BME280;70270;43.434;28.338;2023-07-20T03:38:00;99461.19;;;26.26;63.20
80853;BME280;70270;43.434;28.338;2023-07-20T03:40:55;99455.00;;;26.29;63.09
80853;BME280;70270;43.434;28.338;2023-07-20T03:43:40;99437.06;;;26.35;63.11
80853;BME280;70270;43.434;28.338;2023-07-20T03:46:25;99449.66;;;26.41;63.10
80853;BME280;70270;43.434;28.338;2023-07-20T03:49:09;99434.97;;;26.49;63.06
80853;BME280;70270;43.434;28.338;2023-07-20T03:51:54;99414.53;;;26.45;61.90
80853;BME280;70270;43.434;28.338;2023-07-20T03:54:39;99373.50;;;26.42;61.61
80853;BME280;70270;43.434;28.338;2023-07-20T03:57:24;99431.13;;;26.84;60.64
80853;BME280;70270;43.434;28.338;2023-07-20T04:00:10;99377.34;;;26.89;60.13
80853;BME280;70270;43.434;28.338;2023-07-20T04:02:59;99309.13;;;26.74;59.76
80853;BME280;70270;43.434;28.338;2023-07-20T04:05:44;99313.22;;;26.94;58.68
80853;BME280;70270;43.434;28.338;2023-07-20T04:08:28;99388.28;;;27.37;57.45
80853;BME280;70270;43.434;28.338;2023-07-20T04:11:13;99400.38;;;27.41;58.95
80853;BME280;70270;43.434;28.338;2023-07-20T04:13:57;99263.31;;;26.80;58.95
80853;BME280;70270;43.434;28.338;2023-07-20T04:16:42;99382.69;;;27.71;57.72
80853;BME280;70270;43.434;28.338;2023-07-20T04:19:26;99345.34;;;27.72;58.51
80853;BME280;70270;43.434;28.338;2023-07-20T04:22:11;99247.06;;;27.25;58.78
80853;BME280;70270;43.434;28.338;2023-07-20T04:24:55;99326.56;;;27.52;59.74
80853;BME280;70270;43.434;28.338;2023-07-20T04:27:39;99229.50;;;26.87;59.88
80853;BME280;70270;43.434;28.338;2023-07-20T04:30:24;99346.66;;;27.66;59.85
80853;BME280;70270;43.434;28.338;2023-07-20T04:33:08;99276.31;;;27.40;58.95
80853;BME280;70270;43.434;28.338;2023-07-20T04:35:54;99335.19;;;28.06;57.93
80853;BME280;70270;43.434;28.338;2023-07-20T04:38:50;99345.03;;;28.03;57.14
80853;BME280;70270;43.434;28.338;2023-07-20T04:41:37;99362.91;;;28.11;56.94
80853;BME280;70270;43.434;28.338;2023-07-20T04:44:22;99290.03;;;27.45;55.24
80853;BME280;70270;43.434;28.338;2023-07-20T04:47:06;99286.63;;;27.39;55.30
80853;BME280;70270;43.434;28.338;2023-07-20T04:49:55;99374.94;;;27.77;56.67
80853;BME280;70270;43.434;28.338;2023-07-20T04:52:39;99331.16;;;27.39;59.07
80853;BME280;70270;43.434;28.338;2023-07-20T04:55:24;99364.00;;;27.80;59.62
80853;BME280;70270;43.434;28.338;2023-07-20T04:58:09;99374.38;;;27.28;61.55
80853;BME280;70270;43.434;28.338;2023-07-20T05:00:55;99412.84;;;27.35;60.39
80853;BME280;70270;43.434;28.338;2023-07-20T05:03:40;99257.63;;;26.60;60.05
80853;BME280;70270;43.434;28.338;2023-07-20T05:06:26;99284.28;;;26.86;59.38
80853;BME280;70270;43.434;28.338;2023-07-20T05:09:10;99326.28;;;27.19;58.47
80853;BME280;70270;43.434;28.338;2023-07-20T05:11:55;99439.91;;;28.07;58.74
80853;BME280;70270;43.434;28.338;2023-07-20T05:14:40;99357.69;;;27.28;59.86
80853;BME280;70270;43.434;28.338;2023-07-20T05:17:26;99382.41;;;27.30;61.25
80853;BME280;70270;43.434;28.338;2023-07-20T05:20:10;99416.28;;;27.23;61.84
80853;BME280;70270;43.434;28.338;2023-07-20T05:22:56;99413.16;;;27.42;60.58
80853;BME280;70270;43.434;28.338;2023-07-20T05:25:41;99406.31;;;27.48;60.17
80853;BME280;70270;43.434;28.338;2023-07-20T05:28:26;99457.69;;;27.76;60.52
80853;BME280;70270;43.434;28.338;2023-07-20T05:31:11;99467.66;;;27.77;60.59
80853;BME280;70270;43.434;28.338;2023-07-20T05:33:55;99468.03;;;27.67;58.98
80853;BME280;70270;43.434;28.338;2023-07-20T05:36:40;99427.91;;;27.68;58.50
80853;BME280;70270;43.434;28.338;2023-07-20T05:39:24;99481.06;;;28.10;57.79
80853;BME280;70270;43.434;28.338;2023-07-20T05:42:09;99410.16;;;27.81;58.36
80853;BME280;70270;43.434;28.338;2023-07-20T05:44:53;99482.84;;;28.06;57.76
80853;BME280;70270;43.434;28.338;2023-07-20T05:47:39;99448.84;;;28.29;55.15
80853;BME280;70270;43.434;28.338;2023-07-20T05:50:23;99460.31;;;28.36;53.49
80853;BME280;70270;43.434;28.338;2023-07-20T05:53:08;99464.16;;;28.15;51.97
80853;BME280;70270;43.434;28.338;2023-07-20T05:55:53;99482.66;;;28.28;51.33
80853;BME280;70270;43.434;28.338;2023-07-20T05:58:37;99356.81;;;27.62;49.88
80853;BME280;70270;43.434;28.338;2023-07-20T06:01:22;99464.78;;;28.58;49.77
80853;BME280;70270;43.434;28.338;2023-07-20T06:04:06;99475.44;;;28.94;48.46
80853;BME280;70270;43.434;28.338;2023-07-20T06:06:51;99409.88;;;28.21;47.84
80853;BME280;70270;43.434;28.338;2023-07-20T06:09:35;99499.09;;;28.50;47.46
80853;BME280;70270;43.434;28.338;2023-07-20T06:12:19;99465.28;;;28.90;47.90
80853;BME280;70270;43.434;28.338;2023-07-20T06:15:05;99478.69;;;28.67;47.09
80853;BME280;70270;43.434;28.338;2023-07-20T06:17:50;99490.13;;;28.82;46.72
80853;BME280;70270;43.434;28.338;2023-07-20T06:20:35;99487.72;;;28.64;46.36
80853;BME280;70270;43.434;28.338;2023-07-20T06:23:19;99490.03;;;28.70;47.36
80853;BME280;70270;43.434;28.338;2023-07-20T06:26:06;99449.38;;;28.23;47.62
80853;BME280;70270;43.434;28.338;2023-07-20T06:28:51;99488.63;;;28.85;48.03
80853;BME280;70270;43.434;28.338;2023-07-20T06:31:36;99498.19;;;28.75;48.61
80853;BME280;70270;43.434;28.338;2023-07-20T06:34:20;99344.91;;;27.36;50.38
80853;BME280;70270;43.434;28.338;2023-07-20T06:37:05;99545.63;;;28.20;50.32
80853;BME280;70270;43.434;28.338;2023-07-20T06:39:49;99486.31;;;27.94;49.00
80853;BME280;70270;43.434;28.338;2023-07-20T06:42:34;99450.53;;;28.22;47.58
80853;BME280;70270;43.434;28.338;2023-07-20T06:45:19;99503.38;;;28.86;47.30
80853;BME280;70270;43.434;28.338;2023-07-20T06:48:07;99515.69;;;29.14;45.95
80853;BME280;70270;43.434;28.338;2023-07-20T06:50:51;99531.72;;;29.46;47.27
80853;BME280;70270;43.434;28.338;2023-07-20T06:53:35;99524.63;;;29.69;44.91
80853;BME280;70270;43.434;28.338;2023-07-20T06:56:20;99552.03;;;29.97;42.69
80853;BME280;70270;43.434;28.338;2023-07-20T06:59:04;99519.88;;;29.91;42.11
80853;BME280;70270;43.434;28.338;2023-07-20T07:01:49;99520.19;;;30.22;41.28
80853;BME280;70270;43.434;28.338;2023-07-20T07:04:33;99515.06;;;30.12;41.29
80853;BME280;70270;43.434;28.338;2023-07-20T07:07:18;99520.91;;;30.19;41.47
80853;BME280;70270;43.434;28.338;2023-07-20T07:10:03;99482.56;;;30.07;41.98
80853;BME280;70270;43.434;28.338;2023-07-20T07:12:49;99520.06;;;30.51;41.69
80853;BME280;70270;43.434;28.338;2023-07-20T07:15:34;99518.81;;;30.28;40.74
80853;BME280;70270;43.434;28.338;2023-07-20T07:18:18;99485.59;;;30.14;41.02
80853;BME280;70270;43.434;28.338;2023-07-20T07:21:04;99433.28;;;29.70;40.62
80853;BME280;70270;43.434;28.338;2023-07-20T07:23:49;99477.09;;;30.23;40.76
80853;BME280;70270;43.434;28.338;2023-07-20T07:26:33;99477.84;;;30.32;40.30
80853;BME280;70270;43.434;28.338;2023-07-20T07:29:18;99482.94;;;30.30;40.69
80853;BME280;70270;43.434;28.338;2023-07-20T07:32:03;99480.81;;;30.15;41.82
80853;BME280;70270;43.434;28.338;2023-07-20T07:34:47;99466.88;;;30.27;40.32
80853;BME280;70270;43.434;28.338;2023-07-20T07:37:32;99305.03;;;29.20;40.35
80853;BME280;70270;43.434;28.338;2023-07-20T07:40:17;99465.31;;;30.17;39.75
80853;BME280;70270;43.434;28.338;2023-07-20T07:43:02;99461.28;;;30.27;39.65
80853;BME280;70270;43.434;28.338;2023-07-20T07:45:46;99454.03;;;30.26;44.65
80853;BME280;70270;43.434;28.338;2023-07-20T07:48:31;99371.75;;;29.79;42.57
80853;BME280;70270;43.434;28.338;2023-07-20T07:51:15;99432.16;;;30.16;44.16
80853;BME280;70270;43.434;28.338;2023-07-20T07:54:00;99455.97;;;30.01;46.99
80853;BME280;70270;43.434;28.338;2023-07-20T07:56:45;99431.22;;;29.79;48.09
80853;BME280;70270;43.434;28.338;2023-07-20T07:59:29;99454.69;;;29.99;47.80
80853;BME280;70270;43.434;28.338;2023-07-20T08:02:15;99465.22;;;30.26;46.57
80853;BME280;70270;43.434;28.338;2023-07-20T08:04:59;99425.63;;;30.12;47.43
80853;BME280;70270;43.434;28.338;2023-07-20T08:07:44;99451.31;;;30.05;50.53
80853;BME280;70270;43.434;28.338;2023-07-20T08:10:30;99429.69;;;29.82;51.42
80853;BME280;70270;43.434;28.338;2023-07-20T08:13:14;99377.72;;;29.03;52.04
80853;BME280;70270;43.434;28.338;2023-07-20T08:15:59;99457.78;;;29.52;51.14
80853;BME280;70270;43.434;28.338;2023-07-20T08:18:43;99474.81;;;29.39;51.39
80853;BME280;70270;43.434;28.338;2023-07-20T08:21:29;99386.66;;;28.67;51.56
80853;BME280;70270;43.434;28.338;2023-07-20T08:24:14;99473.78;;;28.72;53.33
80853;BME280;70270;43.434;28.338;2023-07-20T08:26:58;99317.78;;;27.79;53.34
80853;BME280;70270;43.434;28.338;2023-07-20T08:29:43;99496.09;;;28.72;53.36
80853;BME280;70270;43.434;28.338;2023-07-20T08:32:27;99320.16;;;27.60;52.71
80853;BME280;70270;43.434;28.338;2023-07-20T08:35:12;99477.53;;;28.76;51.12
80853;BME280;70270;43.434;28.338;2023-07-20T08:37:56;99472.19;;;28.92;50.29
80853;BME280;70270;43.434;28.338;2023-07-20T08:40:44;99362.81;;;28.28;47.40
80853;BME280;70270;43.434;28.338;2023-07-20T08:43:30;99492.03;;;28.91;46.61
80853;BME280;70270;43.434;28.338;2023-07-20T08:46:16;99498.72;;;28.98;45.94
80853;BME280;70270;43.434;28.338;2023-07-20T08:49:01;99493.94;;;28.99;45.63
80853;BME280;70270;43.434;28.338;2023-07-20T08:51:51;99495.75;;;29.24;46.20
80853;BME280;70270;43.434;28.338;2023-07-20T08:54:36;99510.84;;;29.32;45.80
80853;BME280;70270;43.434;28.338;2023-07-20T08:57:21;99480.16;;;29.23;46.18
80853;BME280;70270;43.434;28.338;2023-07-20T09:00:07;99280.03;;;28.28;46.04
80853;BME280;70270;43.434;28.338;2023-07-20T09:02:57;99486.91;;;29.63;45.24
80853;BME280;70270;43.434;28.338;2023-07-20T09:05:42;99495.91;;;29.69;45.15
80853;BME280;70270;43.434;28.338;2023-07-20T09:08:26;99476.81;;;29.71;45.34
80853;BME280;70270;43.434;28.338;2023-07-20T09:11:12;99476.00;;;29.70;45.61
80853;BME280;70270;43.434;28.338;2023-07-20T09:14:08;99483.72;;;29.86;45.05
80853;BME280;70270;43.434;28.338;2023-07-20T09:16:54;99484.25;;;29.88;45.42
80853;BME280;70270;43.434;28.338;2023-07-20T09:23:19;99492.44;;;29.72;48.73
80853;BME280;70270;43.434;28.338;2023-07-20T09:26:13;99481.63;;;29.83;49.00
80853;BME280;70270;43.434;28.338;2023-07-20T09:28:59;99479.41;;;29.76;49.31
80853;BME280;70270;43.434;28.338;2023-07-20T09:31:58;99515.22;;;29.95;50.23
80853;BME280;70270;43.434;28.338;2023-07-20T09:34:44;99490.66;;;29.88;50.93
80853;BME280;70270;43.434;28.338;2023-07-20T09:37:28;99514.97;;;29.46;51.88
80853;BME280;70270;43.434;28.338;2023-07-20T09:40:16;99475.50;;;29.36;50.43
80853;BME280;70270;43.434;28.338;2023-07-20T09:43:01;99479.00;;;29.65;47.95
80853;BME280;70270;43.434;28.338;2023-07-20T09:45:48;99487.16;;;29.91;46.76
80853;BME280;70270;43.434;28.338;2023-07-20T09:48:32;99388.75;;;29.20;46.05
80853;BME280;70270;43.434;28.338;2023-07-20T09:51:17;99392.97;;;29.05;45.34
80853;BME280;70270;43.434;28.338;2023-07-20T09:54:03;99490.56;;;29.97;45.41
80853;BME280;70270;43.434;28.338;2023-07-20T09:56:48;99464.25;;;29.98;43.22
80853;BME280;70270;43.434;28.338;2023-07-20T09:59:34;99453.63;;;29.91;42.90
80853;BME280;70270;43.434;28.338;2023-07-20T10:02:32;99483.00;;;30.09;42.42
80853;BME280;70270;43.434;28.338;2023-07-20T10:05:17;99472.97;;;30.53;42.53
80853;BME280;70270;43.434;28.338;2023-07-20T10:08:03;99451.66;;;30.49;41.00
80853;BME280;70270;43.434;28.338;2023-07-20T10:10:49;99471.34;;;30.52;40.86
80853;BME280;70270;43.434;28.338;2023-07-20T10:13:38;99429.47;;;30.32;40.15
80853;BME280;70270;43.434;28.338;2023-07-20T10:16:26;99452.00;;;30.59;40.71
80853;BME280;70270;43.434;28.338;2023-07-20T10:22:19;99471.56;;;30.47;41.10
80853;BME280;70270;43.434;28.338;2023-07-20T10:25:07;99467.19;;;30.13;40.45
80853;BME280;70270;43.434;28.338;2023-07-20T10:27:53;99461.03;;;30.20;39.95
80853;BME280;70270;43.434;28.338;2023-07-20T10:30:39;99456.06;;;30.62;40.74
80853;BME280;70270;43.434;28.338;2023-07-20T10:33:24;99451.50;;;30.94;37.80
80853;BME280;70270;43.434;28.338;2023-07-20T10:36:10;99445.84;;;31.30;40.56
80853;BME280;70270;43.434;28.338;2023-07-20T10:38:57;99461.75;;;31.82;41.24
80853;BME280;70270;43.434;28.338;2023-07-20T10:41:42;99450.38;;;31.90;37.90
80853;BME280;70270;43.434;28.338;2023-07-20T10:44:26;99423.81;;;31.29;37.88
80853;BME280;70270;43.434;28.338;2023-07-20T10:47:12;99425.47;;;31.58;37.71
80853;BME280;70270;43.434;28.338;2023-07-20T10:50:01;99421.16;;;31.76;41.72
80853;BME280;70270;43.434;28.338;2023-07-20T10:53:04;99422.16;;;31.83;39.69
80853;BME280;70270;43.434;28.338;2023-07-20T10:56:15;99425.06;;;31.87;40.65
80853;BME280;70270;43.434;28.338;2023-07-20T10:59:37;99312.75;;;31.05;38.45
80853;BME280;70270;43.434;28.338;2023-07-20T11:02:24;99303.31;;;30.97;38.64
80853;BME280;70270;43.434;28.338;2023-07-20T11:05:35;99417.28;;;31.52;37.96
80853;BME280;70270;43.434;28.338;2023-07-20T11:08:41;99399.97;;;31.63;36.97
80853;BME280;70270;43.434;28.338;2023-07-20T11:11:28;99380.06;;;31.52;38.24
80853;BME280;70270;43.434;28.338;2023-07-20T11:17:13;99328.88;;;31.67;37.60
80853;BME280;70270;43.434;28.338;2023-07-20T11:19:59;99400.50;;;31.96;34.51
80853;BME280;70270;43.434;28.338;2023-07-20T11:22:46;99405.41;;;31.55;36.25
80853;BME280;70270;43.434;28.338;2023-07-20T11:25:40;99393.16;;;31.48;37.93
80853;BME280;70270;43.434;28.338;2023-07-20T11:28:24;99402.88;;;31.66;37.41
80853;BME280;70270;43.434;28.338;2023-07-20T11:31:09;99383.13;;;31.47;36.30
80853;BME280;70270;43.434;28.338;2023-07-20T11:33:53;99390.94;;;31.13;36.66
80853;BME280;70270;43.434;28.338;2023-07-20T11:36:39;99398.31;;;31.06;36.17
80853;BME280;70270;43.434;28.338;2023-07-20T11:39:25;99371.63;;;30.96;37.31
80853;BME280;70270;43.434;28.338;2023-07-20T11:42:11;99335.19;;;30.81;37.07
80853;BME280;70270;43.434;28.338;2023-07-20T11:44:56;99354.09;;;31.39;36.95
80853;BME280;70270;43.434;28.338;2023-07-20T11:47:44;99346.28;;;31.17;36.31
80853;BME280;70270;43.434;28.338;2023-07-20T11:50:28;99259.25;;;30.82;37.25
80853;BME280;70270;43.434;28.338;2023-07-20T11:53:14;99358.34;;;31.33;37.21
80853;BME280;70270;43.434;28.338;2023-07-20T11:55:59;99355.06;;;31.31;37.49
80853;BME280;70270;43.434;28.338;2023-07-20T11:58:44;99360.56;;;31.55;37.80
80853;BME280;70270;43.434;28.338;2023-07-20T12:01:30;99350.03;;;31.65;38.35
80853;BME280;70270;43.434;28.338;2023-07-20T12:04:15;99347.75;;;31.86;36.78
80853;BME280;70270;43.434;28.338;2023-07-20T12:07:00;99333.84;;;32.05;36.20
80853;BME280;70270;43.434;28.338;2023-07-20T12:10:02;99338.97;;;31.56;37.45
80853;BME280;70270;43.434;28.338;2023-07-20T12:12:46;99323.25;;;31.67;39.85
80853;BME280;70270;43.434;28.338;2023-07-20T12:15:31;99320.09;;;32.00;39.03
80853;BME280;70270;43.434;28.338;2023-07-20T12:18:16;99298.00;;;31.51;36.47
80853;BME280;70270;43.434;28.338;2023-07-20T12:21:00;99321.38;;;31.28;37.08
80853;BME280;70270;43.434;28.338;2023-07-20T12:23:45;99280.44;;;31.23;36.29
80853;BME280;70270;43.434;28.338;2023-07-20T12:26:31;99168.53;;;30.67;37.36
80853;BME280;70270;43.434;28.338;2023-07-20T12:29:15;99323.66;;;31.66;36.86
80853;BME280;70270;43.434;28.338;2023-07-20T12:31:59;99258.53;;;31.41;35.64
80853;BME280;70270;43.434;28.338;2023-07-20T12:34:44;99166.31;;;30.73;35.99
80853;BME280;70270;43.434;28.338;2023-07-20T12:37:28;99325.38;;;31.42;36.91
80853;BME280;70270;43.434;28.338;2023-07-20T12:40:13;99335.28;;;31.68;36.64
80853;BME280;70270;43.434;28.338;2023-07-20T12:42:58;99340.91;;;31.99;36.00
80853;BME280;70270;43.434;28.338;2023-07-20T12:45:42;99197.53;;;31.34;36.21
80853;BME280;70270;43.434;28.338;2023-07-20T12:48:27;99335.94;;;31.77;36.10
80853;BME280;70270;43.434;28.338;2023-07-20T12:51:11;99303.31;;;31.69;37.53
80853;BME280;70270;43.434;28.338;2023-07-20T12:54:00;99330.06;;;32.29;38.06
80853;BME280;70270;43.434;28.338;2023-07-20T12:56:45;99322.09;;;32.15;37.85
80853;BME280;70270;43.434;28.338;2023-07-20T12:59:30;99309.34;;;32.02;36.63
80853;BME280;70270;43.434;28.338;2023-07-20T13:02:14;99313.84;;;32.07;35.68
80853;BME280;70270;43.434;28.338;2023-07-20T13:04:59;99172.16;;;31.11;37.63
80853;BME280;70270;43.434;28.338;2023-07-20T13:07:43;99245.34;;;31.41;37.00
80853;BME280;70270;43.434;28.338;2023-07-20T13:10:28;99286.63;;;31.44;36.33
80853;BME280;70270;43.434;28.338;2023-07-20T13:13:13;99285.91;;;31.47;37.03
80853;BME280;70270;43.434;28.338;2023-07-20T13:15:57;99252.25;;;30.60;37.20
80853;BME280;70270;43.434;28.338;2023-07-20T13:18:42;99324.47;;;31.10;40.47
80853;BME280;70270;43.434;28.338;2023-07-20T13:21:26;99324.75;;;31.33;39.52
80853;BME280;70270;43.434;28.338;2023-07-20T13:24:11;99159.50;;;30.58;39.98
80853;BME280;70270;43.434;28.338;2023-07-20T13:26:55;99122.25;;;30.42;39.52
80853;BME280;70270;43.434;28.338;2023-07-20T13:29:39;99310.06;;;31.24;40.04
80853;BME280;70270;43.434;28.338;2023-07-20T13:32:24;99320.84;;;31.66;40.39
80853;BME280;70270;43.434;28.338;2023-07-20T13:35:09;99335.72;;;31.26;42.60
80853;BME280;70270;43.434;28.338;2023-07-20T13:37:54;99324.25;;;31.59;43.06
80853;BME280;70270;43.434;28.338;2023-07-20T13:40:38;99323.00;;;31.56;43.65
80853;BME280;70270;43.434;28.338;2023-07-20T13:43:23;99301.69;;;31.40;43.31
80853;BME280;70270;43.434;28.338;2023-07-20T13:46:08;99181.28;;;30.65;44.48
80853;BME280;70270;43.434;28.338;2023-07-20T13:48:52;99337.94;;;31.48;45.11
80853;BME280;70270;43.434;28.338;2023-07-20T13:51:37;99314.28;;;31.18;46.77
80853;BME280;70270;43.434;28.338;2023-07-20T13:54:21;99153.41;;;29.89;48.21
80853;BME280;70270;43.434;28.338;2023-07-20T13:57:05;99313.19;;;30.95;49.58
80853;BME280;70270;43.434;28.338;2023-07-20T13:59:50;99311.31;;;31.11;48.32
80853;BME280;70270;43.434;28.338;2023-07-20T14:02:34;99322.06;;;30.97;47.30
80853;BME280;70270;43.434;28.338;2023-07-20T14:05:19;99303.09;;;31.18;51.07
80853;BME280;70270;43.434;28.338;2023-07-20T14:08:03;99321.44;;;30.76;52.90
80853;BME280;70270;43.434;28.338;2023-07-20T14:10:48;99261.56;;;30.00;52.16
80853;BME280;70270;43.434;28.338;2023-07-20T14:13:32;99305.66;;;30.43;53.66
80853;BME280;70270;43.434;28.338;2023-07-20T14:16:17;99141.59;;;28.86;56.10
80853;BME280;70270;43.434;28.338;2023-07-20T14:19:01;99325.44;;;30.14;54.67
80853;BME280;70270;43.434;28.338;2023-07-20T14:21:45;99200.78;;;29.61;55.18
80853;BME280;70270;43.434;28.338;2023-07-20T14:24:30;99316.84;;;30.31;53.84
80853;BME280;70270;43.434;28.338;2023-07-20T14:27:14;99310.09;;;30.44;55.04
80853;BME280;70270;43.434;28.338;2023-07-20T14:29:59;99307.41;;;30.11;54.01
80853;BME280;70270;43.434;28.338;2023-07-20T14:32:43;99308.78;;;30.54;52.45
80853;BME280;70270;43.434;28.338;2023-07-20T14:35:28;99257.16;;;30.39;52.29
80853;BME280;70270;43.434;28.338;2023-07-20T14:38:12;99309.31;;;30.72;53.15
80853;BME280;70270;43.434;28.338;2023-07-20T14:40:57;99294.25;;;30.24;53.05
80853;BME280;70270;43.434;28.338;2023-07-20T14:43:41;99293.31;;;30.20;51.87
80853;BME280;70270;43.434;28.338;2023-07-20T14:46:25;99294.25;;;29.88;54.17